createdAt,value
2019-03-04T00:02:02.167Z,78.00
2019-03-04T00:04:31.089Z,78.10
2019-03-04T00:06:59.650Z,79.00
2019-03-04T00:09:28.696Z,79.40
2019-03-04T00:11:57.984Z,80.10
2019-03-04T00:14:26.781Z,80.10
2019-03-04T00:16:55.461Z,80.50
2019-03-04T00:19:24.497Z,80.20
2019-03-04T00:21:53.546Z,80.90
2019-03-04T00:24:22.223Z,81.30
2019-03-04T00:26:51.027Z,81.50
2019-03-04T00:29:19.466Z,81.70
2019-03-04T00:31:48.148Z,82.40
2019-03-04T00:34:16.970Z,83.00
2019-03-04T00:36:45.764Z,83.00
2019-03-04T00:39:14.669Z,83.50
2019-03-04T00:41:43.593Z,83.70
2019-03-04T00:44:12.531Z,83.70
2019-03-04T00:46:41.076Z,84.60
2019-03-04T00:49:10.125Z,84.60
2019-03-04T00:51:38.928Z,84.80
2019-03-04T00:54:07.603Z,84.80
2019-03-04T00:56:36.290Z,85.00
2019-03-04T00:59:04.966Z,85.10
2019-03-04T01:01:33.882Z,84.90
2019-03-04T01:04:02.694Z,85.00
2019-03-04T01:06:31.500Z,85.40
2019-03-04T01:08:59.927Z,85.30
2019-03-04T01:11:28.491Z,85.20
2019-03-04T01:13:57.171Z,85.20
2019-03-04T01:16:25.853Z,85.20
2019-03-04T01:18:54.655Z,85.40
2019-03-04T01:21:23.338Z,85.20
2019-03-04T01:23:51.778Z,85.20
2019-03-04T01:26:20.342Z,85.40
2019-03-04T01:28:48.780Z,85.20
2019-03-04T01:31:17.588Z,85.00
2019-03-04T01:33:46.623Z,84.50
2019-03-04T01:36:15.718Z,84.10
2019-03-04T01:38:44.349Z,83.90
2019-03-04T01:41:13.190Z,84.90
2019-03-04T01:43:41.714Z,84.90
2019-03-04T01:46:10.275Z,85.00
2019-03-04T01:48:39.193Z,84.70
2019-03-04T01:51:07.998Z,84.80
2019-03-04T01:53:36.440Z,84.80
2019-03-04T01:56:05.489Z,84.70
2019-03-04T01:58:34.163Z,84.40
2019-03-04T02:01:02.602Z,84.70
2019-03-04T02:03:31.283Z,84.60
2019-03-04T02:05:59.964Z,84.70
2019-03-04T02:08:28.526Z,84.80
2019-03-04T02:10:57.576Z,84.40
2019-03-04T02:13:26.251Z,84.50
2019-03-04T02:15:54.931Z,84.50
2019-03-04T02:18:23.851Z,84.30
2019-03-04T02:20:52.662Z,84.10
2019-03-04T02:23:21.818Z,83.90
2019-03-04T02:26:02.989Z,83.90
2019-03-04T02:28:31.907Z,84.20
2019-03-04T02:31:00.586Z,84.00
2019-03-04T02:33:29.266Z,84.30
2019-03-04T02:35:58.185Z,84.40
2019-03-04T02:38:27.108Z,84.90
2019-03-04T02:40:56.029Z,84.20
2019-03-04T02:43:24.477Z,84.20
2019-03-04T02:45:53.158Z,82.90
2019-03-04T02:48:22.195Z,82.80
2019-03-04T02:50:50.874Z,83.20
2019-03-04T02:53:19.933Z,84.00
2019-03-04T02:55:48.716Z,84.60
2019-03-04T02:58:17.524Z,85.20
2019-03-04T03:00:46.080Z,85.40
2019-03-04T03:03:14.648Z,85.80
2019-03-04T03:05:43.685Z,86.20
2019-03-04T03:08:12.605Z,86.50
2019-03-04T03:10:41.648Z,87.10
2019-03-04T03:13:10.577Z,87.70
2019-03-04T03:15:39.377Z,87.70
2019-03-04T03:18:08.178Z,87.70
2019-03-04T03:20:36.980Z,87.70
2019-03-04T03:23:05.655Z,87.70
2019-03-04T03:25:35.534Z,87.80
2019-03-04T03:28:04.339Z,87.90
2019-03-04T03:30:33.021Z,88.70
2019-03-04T03:33:02.423Z,88.40
2019-03-04T03:35:31.224Z,87.30
2019-03-04T03:38:00.272Z,85.80
2019-03-04T03:40:29.192Z,87.00
2019-03-04T03:42:57.872Z,86.60
2019-03-04T03:45:26.555Z,85.50
2019-03-04T03:47:55.479Z,82.90
2019-03-04T03:50:24.638Z,85.10
2019-03-04T03:52:53.557Z,82.50
2019-03-04T03:55:22.239Z,81.30
2019-03-04T03:57:51.050Z,81.50
2019-03-04T04:00:21.044Z,80.50
2019-03-04T04:02:49.724Z,78.40
2019-03-04T04:05:18.644Z,77.00
2019-03-04T04:07:47.086Z,77.80
2019-03-04T04:10:18.055Z,76.20
2019-03-04T04:12:46.735Z,76.20
2019-03-04T04:15:16.498Z,76.40
2019-03-04T04:17:45.545Z,76.10
2019-03-04T04:20:14.469Z,76.30
2019-03-04T04:22:43.380Z,76.60
2019-03-04T04:25:13.018Z,76.90
2019-03-04T04:27:41.936Z,76.10
2019-03-04T04:30:16.259Z,76.30
2019-03-04T04:32:45.303Z,76.60
2019-03-04T04:35:14.107Z,75.90
2019-03-04T04:37:42.909Z,75.80
2019-03-04T04:40:15.306Z,76.70
2019-03-04T04:42:44.111Z,77.50
2019-03-04T04:45:12.798Z,76.60
2019-03-04T04:47:42.924Z,77.10
2019-03-04T04:50:14.709Z,76.20
2019-03-04T04:52:43.515Z,77.30
2019-03-04T04:55:12.081Z,75.80
2019-03-04T04:57:40.876Z,76.80
2019-03-04T05:00:12.435Z,76.50
2019-03-04T05:02:41.006Z,77.00
2019-03-04T05:05:09.922Z,77.20
2019-03-04T05:07:38.599Z,77.60
2019-03-04T05:10:21.444Z,78.00
2019-03-04T05:12:50.124Z,78.60
2019-03-04T05:15:18.813Z,77.80
2019-03-04T05:17:47.609Z,78.30
2019-03-04T05:20:19.649Z,77.70
2019-03-04T05:22:48.214Z,77.70
2019-03-04T05:25:17.016Z,76.60
2019-03-04T05:27:45.938Z,76.80
2019-03-04T05:30:19.899Z,75.90
2019-03-04T05:32:48.939Z,76.40
2019-03-04T05:35:17.869Z,76.80
2019-03-04T05:37:48.224Z,75.30
2019-03-04T05:40:18.945Z,75.30
2019-03-04T05:42:47.985Z,74.70
2019-03-04T05:45:17.516Z,75.80
2019-03-04T05:47:46.468Z,75.60
2019-03-04T05:50:17.027Z,75.40
2019-03-04T05:52:45.832Z,75.50
2019-03-04T05:55:15.352Z,74.80
2019-03-04T05:57:44.039Z,74.30
2019-03-04T06:00:16.314Z,74.70
2019-03-04T06:02:45.126Z,74.30
2019-03-04T06:05:14.998Z,74.40
2019-03-04T06:07:45.127Z,75.20
2019-03-04T06:10:14.165Z,73.40
2019-03-04T06:12:43.082Z,73.70
2019-03-04T06:15:14.649Z,73.20
2019-03-04T06:17:43.822Z,72.30
2019-03-04T06:20:14.538Z,72.70
2019-03-04T06:22:43.449Z,72.30
2019-03-04T06:25:14.893Z,72.60
2019-03-04T06:27:46.214Z,72.10
2019-03-04T06:30:20.194Z,71.10
2019-03-04T06:32:49.698Z,71.80
2019-03-04T06:35:18.498Z,69.70
2019-03-04T06:37:47.299Z,69.60
2019-03-04T06:40:17.189Z,68.20
2019-03-04T06:42:45.635Z,67.70
2019-03-04T06:45:15.987Z,67.40
2019-03-04T06:47:44.666Z,67.70
2019-03-04T06:50:47.072Z,67.20
2019-03-04T06:53:21.872Z,68.40
2019-03-04T06:56:05.557Z,68.50
2019-03-04T06:58:37.472Z,66.70
2019-03-04T07:01:09.513Z,66.40
2019-03-04T07:03:38.194Z,69.70
2019-03-04T07:06:06.642Z,68.80
2019-03-04T07:08:41.198Z,66.60
2019-03-04T07:11:09.759Z,66.80
2019-03-04T07:13:38.449Z,66.50
2019-03-04T07:16:06.884Z,65.20
2019-03-04T07:18:35.446Z,65.50
2019-03-04T07:21:04.129Z,66.60
2019-03-04T07:23:32.568Z,65.60
2019-03-04T07:26:01.014Z,65.40
2019-03-04T07:28:29.695Z,65.90
2019-03-04T07:30:58.372Z,64.90
2019-03-04T07:33:26.818Z,64.70
2019-03-04T07:35:55.497Z,65.80
2019-03-04T07:38:27.310Z,65.90
2019-03-04T07:40:55.857Z,65.30
2019-03-04T07:43:24.541Z,64.90
2019-03-04T07:45:53.103Z,63.70
2019-03-04T07:48:21.542Z,64.60
2019-03-04T07:50:49.998Z,64.80
2019-03-04T07:53:19.208Z,65.90
2019-03-04T07:55:47.953Z,66.90
2019-03-04T07:58:16.387Z,67.80
2019-03-04T08:00:44.839Z,67.70
2019-03-04T08:03:13.517Z,68.50
2019-03-04T08:05:41.956Z,67.90
2019-03-04T08:08:12.795Z,66.40
2019-03-04T08:11:01.309Z,66.00
2019-03-04T08:13:33.325Z,64.50
2019-03-04T08:16:02.003Z,62.60
2019-03-04T08:18:30.685Z,60.80
2019-03-04T08:20:59.364Z,57.90
2019-03-04T08:23:28.049Z,58.00
2019-03-04T08:25:56.730Z,56.70
2019-03-04T08:28:25.533Z,55.60
2019-03-04T08:30:54.212Z,54.90
2019-03-04T08:33:22.903Z,54.70
2019-03-04T08:35:51.585Z,53.80
2019-03-04T08:38:20.255Z,53.20
2019-03-04T08:40:48.947Z,51.80
2019-03-04T08:43:17.621Z,50.20
2019-03-04T08:45:46.303Z,50.70
2019-03-04T08:48:14.985Z,50.20
2019-03-04T08:50:43.667Z,51.50
2019-03-04T08:53:12.349Z,52.70
2019-03-04T08:55:40.788Z,54.50
2019-03-04T08:58:09.471Z,54.10
2019-03-04T09:00:37.913Z,55.20
2019-03-04T09:03:06.351Z,56.40
2019-03-04T09:05:35.035Z,58.50
2019-03-04T09:08:03.716Z,59.90
2019-03-04T09:10:35.040Z,60.30
2019-03-04T09:13:03.602Z,61.60
2019-03-04T09:15:33.360Z,62.40
2019-03-04T09:18:01.925Z,62.90
2019-03-04T09:20:30.602Z,63.60
2019-03-04T09:22:59.285Z,64.30
2019-03-04T09:25:30.915Z,64.10
2019-03-04T09:27:58.927Z,62.20
2019-03-04T09:30:27.373Z,60.00
2019-03-04T09:32:55.825Z,60.20
2019-03-04T09:35:24.610Z,60.20
2019-03-04T09:37:53.175Z,59.60
2019-03-04T09:40:23.299Z,58.80
2019-03-04T09:42:52.220Z,58.50
2019-03-04T09:45:20.900Z,58.10
2019-03-04T09:47:49.590Z,57.90
2019-03-04T09:50:25.464Z,58.30
2019-03-04T09:52:54.626Z,58.70
2019-03-04T09:55:23.908Z,58.30
2019-03-04T09:57:52.356Z,58.10
2019-03-04T10:00:30.027Z,58.30
2019-03-04T10:03:18.510Z,57.60
2019-03-04T10:06:06.632Z,57.50
2019-03-04T10:08:47.319Z,57.30
2019-03-04T10:11:24.754Z,58.40
2019-03-04T10:14:05.682Z,57.70
2019-03-04T10:16:43.006Z,57.50
2019-03-04T10:19:30.768Z,57.70
2019-03-04T10:22:05.326Z,58.30
2019-03-04T10:24:37.484Z,58.40
2019-03-04T10:27:24.164Z,59.50
2019-03-04T10:30:13.736Z,60.70
2019-03-04T10:32:45.532Z,61.40
2019-03-04T10:35:32.332Z,61.10
2019-03-04T10:38:04.135Z,61.20
2019-03-04T10:40:41.815Z,59.90
2019-03-04T10:43:19.986Z,60.10
2019-03-04T10:46:03.539Z,59.50
2019-03-04T10:48:31.977Z,59.80
2019-03-04T10:51:00.664Z,59.50
2019-03-04T10:53:29.350Z,60.30
2019-03-04T10:55:58.023Z,61.00
2019-03-04T10:58:26.724Z,61.40
2019-03-04T11:00:55.161Z,59.00
2019-03-04T11:03:23.591Z,55.50
2019-03-04T11:05:52.277Z,53.30
2019-03-04T11:08:20.843Z,53.00
2019-03-04T11:10:49.518Z,53.30
2019-03-04T11:13:18.202Z,53.60
2019-03-04T11:15:47.003Z,56.30
2019-03-04T11:18:15.437Z,59.40
2019-03-04T11:20:44.122Z,64.50
2019-03-04T11:23:14.929Z,66.40
2019-03-04T11:25:43.168Z,67.60
2019-03-04T11:28:11.855Z,68.40
2019-03-04T11:30:40.422Z,70.50
2019-03-04T11:33:08.854Z,66.90
2019-03-04T11:35:37.287Z,62.50
2019-03-04T11:38:07.174Z,59.00
2019-03-04T11:40:39.216Z,58.30
2019-03-04T11:43:07.899Z,58.60
2019-03-04T11:45:36.576Z,60.10
2019-03-04T11:48:05.255Z,62.40
2019-03-04T11:50:33.937Z,62.20
2019-03-04T11:53:02.741Z,62.70
2019-03-04T11:55:33.106Z,64.10
2019-03-04T11:58:01.667Z,65.50
2019-03-04T12:00:49.906Z,66.90
2019-03-04T12:03:18.593Z,67.60
2019-03-04T12:05:47.148Z,67.90
2019-03-04T12:08:15.712Z,65.50
2019-03-04T12:10:44.395Z,63.80
2019-03-04T12:13:13.074Z,60.00
2019-03-04T12:15:41.514Z,60.10
2019-03-04T12:18:10.200Z,59.90
2019-03-04T12:20:38.879Z,57.40
2019-03-04T12:23:07.562Z,55.30
2019-03-04T12:25:36.000Z,55.00
2019-03-04T12:28:04.685Z,56.70
2019-03-04T12:30:33.485Z,57.70
2019-03-04T12:33:01.935Z,57.90
2019-03-04T12:35:30.369Z,59.40
2019-03-04T12:37:59.050Z,58.70
2019-03-04T12:40:27.497Z,58.20
2019-03-04T12:42:56.173Z,58.40
2019-03-04T12:45:34.085Z,57.40
2019-03-04T12:47:55.337Z,58.50
2019-03-04T12:50:28.221Z,59.10
2019-03-04T12:52:57.866Z,60.00
2019-03-04T12:55:28.102Z,61.40
2019-03-04T12:57:56.783Z,61.60
2019-03-04T13:00:27.628Z,61.60
2019-03-04T13:02:57.848Z,61.50
2019-03-04T13:05:26.669Z,61.70
2019-03-04T13:07:55.227Z,60.80
2019-03-04T13:10:23.922Z,59.00
2019-03-04T13:12:52.355Z,59.30
2019-03-04T13:15:28.954Z,60.90
2019-03-04T13:17:57.762Z,61.30
2019-03-04T13:20:27.516Z,63.10
2019-03-04T13:22:56.196Z,64.00
2019-03-04T13:25:24.656Z,65.20
2019-03-04T13:27:53.081Z,66.70
2019-03-04T13:30:29.081Z,70.80
2019-03-04T13:32:57.524Z,75.90
2019-03-04T13:35:34.854Z,79.30
2019-03-04T13:38:03.286Z,83.10
2019-03-04T13:40:32.209Z,83.90
2019-03-04T13:43:00.769Z,85.00
2019-03-04T13:45:29.695Z,85.60
2019-03-04T13:47:58.133Z,86.80
2019-03-04T13:50:34.014Z,87.40
2019-03-04T13:53:02.699Z,86.80
2019-03-04T13:55:31.379Z,86.80
2019-03-04T13:58:00.064Z,86.20
2019-03-04T14:00:42.783Z,87.30
2019-03-04T14:03:13.621Z,87.20
2019-03-04T14:05:42.305Z,86.40
2019-03-04T14:08:10.867Z,85.10
2019-03-04T14:10:44.229Z,84.40
2019-03-04T14:13:12.910Z,84.60
2019-03-04T14:15:45.790Z,85.20
2019-03-04T14:18:14.360Z,85.20
2019-03-04T14:20:42.916Z,85.10
2019-03-04T14:23:11.375Z,85.10
2019-03-04T14:25:40.156Z,84.90
2019-03-04T14:28:08.600Z,85.00
2019-03-04T14:30:37.283Z,85.00
2019-03-04T14:33:06.447Z,83.50
2019-03-04T14:35:35.123Z,84.00
2019-03-04T14:38:03.814Z,84.20
2019-03-04T14:40:32.499Z,84.10
2019-03-04T14:43:01.291Z,83.70
2019-03-04T14:45:29.971Z,83.70
2019-03-04T14:47:59.135Z,82.20
2019-03-04T14:50:28.509Z,82.00
2019-03-04T14:52:58.535Z,80.90
2019-03-04T14:55:32.858Z,82.40
2019-03-04T14:58:02.203Z,81.30
2019-03-04T15:00:40.061Z,80.60
2019-03-04T15:03:18.806Z,80.50
2019-03-04T15:05:38.986Z,80.00
2019-03-04T15:08:07.911Z,80.10
2019-03-04T15:10:36.713Z,79.80
2019-03-04T15:13:05.509Z,81.10
2019-03-04T15:15:35.036Z,79.60
2019-03-04T15:18:03.491Z,80.00
2019-03-04T15:20:33.594Z,79.20
2019-03-04T15:23:02.395Z,79.40
2019-03-04T15:25:32.040Z,78.80
2019-03-04T15:28:09.722Z,79.30
2019-03-04T15:30:38.281Z,79.40
2019-03-04T15:33:14.680Z,79.30
2019-03-04T15:35:37.450Z,79.70
2019-03-04T15:38:06.492Z,80.30
2019-03-04T15:40:35.046Z,79.40
2019-03-04T15:43:04.098Z,80.40
2019-03-04T15:45:33.715Z,79.80
2019-03-04T15:48:02.297Z,78.50
2019-03-04T15:50:31.095Z,76.70
2019-03-04T15:52:59.656Z,74.70
2019-03-04T15:55:28.870Z,74.30
2019-03-04T15:57:57.619Z,78.80
2019-03-04T16:00:26.423Z,75.90
2019-03-04T16:02:55.107Z,72.80
2019-03-04T16:05:23.667Z,68.70
2019-03-04T16:07:52.223Z,62.90
2019-03-04T16:10:31.349Z,58.40
2019-03-04T16:13:00.271Z,59.30
2019-03-04T16:15:28.708Z,62.40
2019-03-04T16:17:57.280Z,66.70
2019-03-04T16:20:25.960Z,68.70
2019-03-04T16:22:55.833Z,69.80
2019-03-04T16:25:24.878Z,71.00
2019-03-04T16:28:02.195Z,73.00
2019-03-04T16:30:30.761Z,73.70
2019-03-04T16:32:59.199Z,74.90
2019-03-04T16:35:27.759Z,74.90
2019-03-04T16:37:56.378Z,75.70
2019-03-04T16:40:25.970Z,75.90
2019-03-04T16:42:54.652Z,76.50
2019-03-04T16:45:23.939Z,76.10
2019-03-04T16:47:52.978Z,76.80
2019-03-04T16:50:24.899Z,77.60
2019-03-04T16:52:59.344Z,76.80
2019-03-04T16:55:27.775Z,76.50
2019-03-04T16:57:56.454Z,77.70
2019-03-04T17:00:25.024Z,78.10
2019-03-04T17:02:53.464Z,78.80
2019-03-04T17:05:22.261Z,78.90
2019-03-04T17:07:51.097Z,78.40
2019-03-04T17:10:24.548Z,78.90
2019-03-04T17:12:54.479Z,78.60
2019-03-04T17:15:24.187Z,78.80
2019-03-04T17:17:53.230Z,78.70
2019-03-04T17:20:21.907Z,79.10
2019-03-04T17:22:50.359Z,79.80
2019-03-04T17:25:21.483Z,79.50
2019-03-04T17:27:50.475Z,79.70
2019-03-04T17:30:20.356Z,80.00
2019-03-04T17:32:48.797Z,80.00
2019-03-04T17:35:18.919Z,79.90
2019-03-04T17:37:47.839Z,80.60
2019-03-04T17:40:18.687Z,80.60
2019-03-04T17:42:47.483Z,80.30
2019-03-04T17:45:21.328Z,80.70
2019-03-04T17:47:50.127Z,80.80
2019-03-04T17:50:32.970Z,81.20
2019-03-04T17:53:02.252Z,81.20
2019-03-04T17:55:31.183Z,81.40
2019-03-04T17:57:59.734Z,81.10
2019-03-04T18:00:30.816Z,81.20
2019-03-04T18:02:59.497Z,81.20
2019-03-04T18:05:28.185Z,81.00
2019-03-04T18:07:57.222Z,81.70
2019-03-04T18:10:26.141Z,80.50
2019-03-04T18:12:57.225Z,81.20
2019-03-04T18:15:27.706Z,81.10
2019-03-04T18:17:56.398Z,80.90
2019-03-04T18:20:34.034Z,81.30
2019-03-04T18:22:55.553Z,81.40
2019-03-04T18:25:27.593Z,81.50
2019-03-04T18:28:02.757Z,81.40
2019-03-04T18:30:50.994Z,81.40
2019-03-04T18:33:32.161Z,81.80
2019-03-04T18:36:29.519Z,81.80
2019-03-04T18:39:05.057Z,81.80
2019-03-04T18:42:10.211Z,81.90
2019-03-04T18:45:08.075Z,82.10
2019-03-04T18:47:45.965Z,83.10
2019-03-04T18:50:14.649Z,85.30
2019-03-04T18:52:43.577Z,84.70
2019-03-04T18:55:12.031Z,85.30
2019-03-04T18:57:41.056Z,84.30
2019-03-04T19:00:12.860Z,84.60
2019-03-04T19:02:41.539Z,84.00
2019-03-04T19:05:11.420Z,83.90
2019-03-04T19:07:39.878Z,84.90
2019-03-04T19:10:11.185Z,85.40
2019-03-04T19:12:39.623Z,84.60
2019-03-04T19:15:11.664Z,84.50
2019-03-04T19:17:40.345Z,84.90
2019-03-04T19:20:14.588Z,84.40
2019-03-04T19:22:43.711Z,85.10
2019-03-04T19:25:12.510Z,84.40
2019-03-04T19:27:41.557Z,84.70
2019-03-04T19:30:16.477Z,85.20
2019-03-04T19:32:45.394Z,84.20
2019-03-04T19:35:15.276Z,84.00
2019-03-04T19:37:44.082Z,84.70
2019-03-04T19:40:17.089Z,84.60
2019-03-04T19:42:45.522Z,84.70
2019-03-04T19:45:16.605Z,84.50
2019-03-04T19:47:45.291Z,84.80
2019-03-04T19:50:13.967Z,84.70
2019-03-04T19:52:42.767Z,85.00
2019-03-04T19:55:13.251Z,84.80
2019-03-04T19:57:42.412Z,85.20
2019-03-04T20:00:24.855Z,85.60
2019-03-04T20:02:53.832Z,84.90
2019-03-04T20:05:23.121Z,84.80
2019-03-04T20:07:51.776Z,85.10
2019-03-04T20:10:20.584Z,84.90
2019-03-04T20:12:49.260Z,85.20
2019-03-04T20:15:28.381Z,84.80
2019-03-04T20:17:57.063Z,84.60
2019-03-04T20:20:25.865Z,84.50
2019-03-04T20:22:54.908Z,84.70
2019-03-04T20:25:24.791Z,84.30
2019-03-04T20:27:53.473Z,84.20
2019-03-04T20:30:25.596Z,84.00
2019-03-04T20:32:54.554Z,84.30
2019-03-04T20:35:23.119Z,83.90
2019-03-04T20:38:04.401Z,83.70
2019-03-04T20:40:33.437Z,83.60
2019-03-04T20:43:02.000Z,82.80
2019-03-04T20:45:30.801Z,82.80
2019-03-04T20:47:59.602Z,83.30
2019-03-04T20:50:28.535Z,83.20
2019-03-04T20:52:57.566Z,82.60
2019-03-04T20:55:26.144Z,82.40
2019-03-04T20:57:54.813Z,82.80
2019-03-04T21:00:26.969Z,83.40
2019-03-04T21:02:55.894Z,83.00
2019-03-04T21:05:25.826Z,83.10
2019-03-04T21:07:54.697Z,83.00
2019-03-04T21:10:23.379Z,83.10
2019-03-04T21:12:52.661Z,82.40
2019-03-04T21:15:21.580Z,83.00
2019-03-04T21:17:50.144Z,82.60
2019-03-04T21:20:19.433Z,82.50
2019-03-04T21:22:48.347Z,82.70
2019-03-04T21:25:38.027Z,82.50
2019-03-04T21:28:37.311Z,83.00
2019-03-04T21:31:33.471Z,83.10
2019-03-04T21:34:11.610Z,82.70
2019-03-04T21:37:01.327Z,83.00
2019-03-04T21:39:51.118Z,83.20
2019-03-04T21:42:22.805Z,83.20
2019-03-04T21:45:01.576Z,82.90
2019-03-04T21:47:36.127Z,82.80
2019-03-04T21:50:08.181Z,83.10
2019-03-04T21:52:39.969Z,82.60
2019-03-04T21:55:14.892Z,82.60
2019-03-04T21:57:46.466Z,82.50
2019-03-04T22:00:18.007Z,82.30
2019-03-04T22:02:50.169Z,82.80
2019-03-04T22:05:19.337Z,81.90
2019-03-04T22:07:48.136Z,82.20
2019-03-04T22:10:17.053Z,81.90
2019-03-04T22:12:45.856Z,81.70
2019-03-04T22:15:14.668Z,81.30
2019-03-04T22:17:45.021Z,81.60
2019-03-04T22:20:15.861Z,81.70
2019-03-04T22:22:44.553Z,81.70
2019-03-04T22:25:14.218Z,81.30
2019-03-04T22:27:42.989Z,81.50
2019-03-04T22:30:14.311Z,81.10
2019-03-04T22:32:43.231Z,80.40
2019-03-04T22:35:13.988Z,80.50
2019-03-04T22:37:42.515Z,80.90
2019-03-04T22:40:14.213Z,80.40
2019-03-04T22:42:42.414Z,80.20
2019-03-04T22:45:13.965Z,80.40
2019-03-04T22:47:42.896Z,80.50
2019-03-04T22:50:13.722Z,80.70
2019-03-04T22:52:42.645Z,80.90
2019-03-04T22:55:14.097Z,80.80
2019-03-04T22:57:43.006Z,80.80
2019-03-04T23:00:54.314Z,80.70
2019-03-04T23:03:24.288Z,81.00
2019-03-04T23:05:56.214Z,81.00
2019-03-04T23:08:25.022Z,81.20
2019-03-04T23:10:53.814Z,81.20
2019-03-04T23:13:31.742Z,81.20
2019-03-04T23:16:01.625Z,81.10
2019-03-04T23:18:30.547Z,81.50
2019-03-04T23:20:59.345Z,81.20
2019-03-04T23:23:28.024Z,81.50
2019-03-04T23:25:56.947Z,82.40
2019-03-04T23:28:25.748Z,81.50
2019-03-04T23:30:54.198Z,81.70
2019-03-04T23:33:23.114Z,81.90
2019-03-04T23:35:51.910Z,81.90
2019-03-04T23:38:20.360Z,81.90
2019-03-04T23:40:48.798Z,82.30
2019-03-04T23:43:17.717Z,81.90
2019-03-04T23:45:46.400Z,82.20
2019-03-04T23:48:15.083Z,82.30
2019-03-04T23:50:43.768Z,81.90
2019-03-04T23:53:12.442Z,81.60
2019-03-04T23:55:41.127Z,81.90
2019-03-04T23:58:09.685Z,81.30
